Terminal Aerodrome Forecast
Issued by NWS Grand Forks, ND

Home | Current Version | Previous Version | Graphics & Text | Print | Product List | Glossary On
Versions: 1 2 3 4 5 6 7 8 9 10 11 12 13
000
FTUS43 KFGF 020636 AAA
TAFFAR
TAF AMD
KFAR 020636Z 0207/0306 VRB03KT P6SM SCT250
     FM020900 36012KT P6SM SCT080
     FM021200 34011KT P6SM BKN120
     FM021600 34015G23KT P6SM SCT090
     FM030100 32006KT P6SM SKC=

USA.gov is the U.S. government's official web portal to all federal, state and local government web resources and services.